Time;durP1;ratioP1;P1;durP2;ratioP2;P2;SDS_P1;SDS_P2;PMS_P1;PMS_P2;Temp;Humidity;BMP_temperature;BMP_pressure;BME280_temperature;BME280_humidity;BME280_pressure;Samples;Min_cycle;Max_cycle;Signal;HPM_P1;HPM_P2
2022/01/18 00:01:29;;;;;;;;;;;;;;;3.73;72.92;99358.13;5014711;28;883;-56
2022/01/18 00:16:49;;;;;;;;;;;;;;;3.25;78.05;99372.19;5014859;28;603;-55
2022/01/18 00:19:16;;;;;;;;;;;;;;;3.21;78.29;99354.94;5014283;28;947;-55
2022/01/18 00:25:03;;;;;;;;;;;;;;;3.36;77.94;99357.94;5013847;28;1981;-57
2022/01/18 00:27:30;;;;;;;;;;;;;;;3.32;77.94;99327.81;5014187;28;876;-54
2022/01/18 00:30:36;;;;;;;;;;;;;;;3.27;78.80;99347.25;5014253;28;821;-55
2022/01/18 00:33:14;;;;;;;;;;;;;;;3.24;79.22;99367.06;5013479;28;1757;-58
2022/01/18 00:35:43;;;;;;;;;;;;;;;3.35;78.20;99370.00;5014115;28;1383;-58
2022/01/18 00:38:31;;;;;;;;;;;;;;;3.36;78.15;99377.81;5013991;28;849;-58
2022/01/18 00:40:57;;;;;;;;;;;;;;;3.43;76.79;99394.34;4996234;28;2219;-57
2022/01/18 00:43:24;;;;;;;;;;;;;;;3.58;76.65;99370.00;5013921;28;861;-55
2022/01/18 00:45:51;;;;;;;;;;;;;;;3.69;76.04;99357.28;5013887;28;1895;-50
2022/01/18 00:48:18;;;;;;;;;;;;;;;3.74;74.96;99381.56;5013829;28;894;-56
2022/01/18 00:50:45;;;;;;;;;;;;;;;3.66;75.57;99405.25;4996534;28;912;-56
2022/01/18 00:53:15;;;;;;;;;;;;;;;3.75;74.90;99415.94;5013748;28;805;-56
2022/01/18 00:55:54;;;;;;;;;;;;;;;3.91;73.46;99396.69;5013736;28;970;-55
2022/01/18 00:58:20;;;;;;;;;;;;;;;4.04;72.85;99443.75;5013297;28;1231;-57
2022/01/18 01:00:47;;;;;;;;;;;;;;;4.09;72.62;99444.22;5013638;28;805;-55
2022/01/18 01:03:13;;;;;;;;;;;;;;;4.19;70.40;99425.63;5013554;28;820;-57
2022/01/18 01:05:40;;;;;;;;;;;;;;;4.20;70.40;99418.97;5013486;28;1910;-52
2022/01/18 01:08:06;;;;;;;;;;;;;;;4.25;69.74;99432.34;5013458;28;888;-57
2022/01/18 01:10:32;;;;;;;;;;;;;;;4.26;68.89;99431.97;5013481;28;833;-52
2022/01/18 01:13:00;;;;;;;;;;;;;;;4.22;66.55;99469.41;5013163;28;944;-57
2022/01/18 01:15:28;;;;;;;;;;;;;;;4.23;65.35;99467.50;5013239;28;861;-56
2022/01/18 01:42:55;;;;;;;;;;;;;;;3.96;57.25;99544.03;5013291;28;604;-58
2022/01/18 01:45:18;;;;;;;;;;;;;;;3.88;57.25;99550.50;5012560;28;1941;-58
2022/01/18 01:47:51;;;;;;;;;;;;;;;3.90;57.14;99559.16;5013202;28;887;-57
2022/01/18 01:50:19;;;;;;;;;;;;;;;3.85;56.16;99527.44;5012611;28;920;-56
2022/01/18 01:52:46;;;;;;;;;;;;;;;3.78;56.36;99582.00;5012446;28;1034;-57
2022/01/18 01:55:13;;;;;;;;;;;;;;;3.63;56.12;99608.25;5012593;28;969;-57
2022/01/18 01:57:40;;;;;;;;;;;;;;;3.56;57.36;99675.63;5012674;28;895;-57
2022/01/18 02:00:09;;;;;;;;;;;;;;;2.41;65.78;99701.06;5012357;28;1483;-58
2022/01/18 02:02:35;;;;;;;;;;;;;;;1.01;72.27;99713.34;5012528;28;848;-57
2022/01/18 02:05:03;;;;;;;;;;;;;;;0.29;77.23;99752.91;5012420;28;1902;-58
2022/01/18 02:07:30;;;;;;;;;;;;;;;-0.08;80.49;99766.34;5012469;28;885;-58
2022/01/18 02:10:25;;;;;;;;;;;;;;;-0.25;81.56;99764.53;4994804;28;904;-58
2022/01/18 02:12:51;;;;;;;;;;;;;;;-0.33;81.61;99789.84;5012313;28;864;-57
2022/01/18 02:15:19;;;;;;;;;;;;;;;-0.31;82.44;99787.59;5012266;28;903;-58
2022/01/18 02:26:24;;;;;;;;;;;;;;;-0.71;84.67;99843.03;5008695;28;1151;-58
2022/01/18 02:28:50;;;;;;;;;;;;;;;-0.70;83.44;99838.44;5012101;28;864;-58
2022/01/18 02:31:18;;;;;;;;;;;;;;;-0.73;82.58;99845.28;5012323;28;881;-58
2022/01/18 02:33:45;;;;;;;;;;;;;;;-0.64;81.80;99859.66;5012051;28;859;-58
2022/01/18 02:36:12;;;;;;;;;;;;;;;-0.67;81.74;99846.69;5012376;28;1005;-58
2022/01/18 02:38:38;;;;;;;;;;;;;;;-0.72;81.36;99813.53;5011892;28;956;-55
2022/01/18 02:41:07;;;;;;;;;;;;;;;-0.70;80.71;99852.81;5011803;28;888;-56
2022/01/18 02:43:55;;;;;;;;;;;;;;;-0.68;80.99;99860.63;5011955;28;888;-55
2022/01/18 02:46:20;;;;;;;;;;;;;;;-0.81;81.04;99870.56;5011756;28;1882;-56
2022/01/18 02:48:47;;;;;;;;;;;;;;;-0.80;80.80;99883.00;5011630;28;809;-56
2022/01/18 02:51:13;;;;;;;;;;;;;;;-0.74;81.01;99889.84;4994355;28;872;-56
2022/01/18 02:53:55;;;;;;;;;;;;;;;-0.74;81.19;99905.34;5011759;28;876;-56
2022/01/18 02:56:23;;;;;;;;;;;;;;;-0.77;81.07;99914.91;5012133;28;987;-56
2022/01/18 02:58:49;;;;;;;;;;;;;;;-0.88;80.98;99921.81;5011497;28;1200;-56
2022/01/18 03:04:03;;;;;;;;;;;;;;;-1.20;80.81;99879.75;5012108;28;1906;-56
2022/01/18 03:06:29;;;;;;;;;;;;;;;-1.27;81.10;99882.94;5011884;28;849;-57
2022/01/18 03:08:56;;;;;;;;;;;;;;;-1.32;81.09;99907.53;5011493;28;880;-57
2022/01/18 03:11:22;;;;;;;;;;;;;;;-1.38;80.77;99919.66;5011784;28;959;-56
2022/01/18 03:13:48;;;;;;;;;;;;;;;-1.36;81.10;99941.81;5011878;28;849;-57
2022/01/18 03:16:15;;;;;;;;;;;;;;;-1.36;80.93;99948.03;5011819;28;828;-57
2022/01/18 03:18:41;;;;;;;;;;;;;;;-1.22;80.21;99945.16;5011635;28;817;-57
2022/01/18 03:21:09;;;;;;;;;;;;;;;-1.10;80.17;99955.38;5011380;28;845;-57
2022/01/18 03:23:36;;;;;;;;;;;;;;;-0.98;79.46;99933.00;4993793;28;1165;-57
2022/01/18 03:26:14;;;;;;;;;;;;;;;-0.94;79.34;99929.34;5011290;28;1949;-58
2022/01/18 03:28:41;;;;;;;;;;;;;;;-0.87;79.34;99932.34;5011400;28;880;-58
2022/01/18 03:31:08;;;;;;;;;;;;;;;-0.79;79.20;99946.22;4993739;28;2528;-58
2022/01/18 03:33:34;;;;;;;;;;;;;;;-0.70;78.93;99964.09;5011457;28;865;-58
2022/01/18 03:36:01;;;;;;;;;;;;;;;-0.65;78.70;99982.91;5011743;28;1000;-57
2022/01/18 03:38:31;;;;;;;;;;;;;;;-0.60;77.95;99986.56;5011300;28;824;-58
2022/01/18 03:41:01;;;;;;;;;;;;;;;-0.56;78.38;100003.81;5011392;28;888;-58
2022/01/18 03:43:28;;;;;;;;;;;;;;;-0.51;78.49;99992.78;5011304;28;1097;-58
2022/01/18 03:46:00;;;;;;;;;;;;;;;-0.47;78.11;100010.03;5011247;28;1894;-58
2022/01/18 03:48:33;;;;;;;;;;;;;;;-0.45;77.98;100015.94;5011255;28;817;-58
2022/01/18 03:51:00;;;;;;;;;;;;;;;-0.47;77.87;100021.72;5011325;28;813;-58
2022/01/18 03:53:27;;;;;;;;;;;;;;;-0.47;77.86;100023.59;5011235;28;888;-58
2022/01/18 03:55:53;;;;;;;;;;;;;;;-0.49;77.81;100029.38;5011288;28;801;-58
2022/01/18 03:58:19;;;;;;;;;;;;;;;-0.54;77.97;100026.03;5011020;28;1373;-58
2022/01/18 04:00:46;;;;;;;;;;;;;;;-0.65;77.99;100017.41;5012890;28;891;-58
2022/01/18 04:03:13;;;;;;;;;;;;;;;-0.83;78.09;100032.94;5014958;28;816;-58
2022/01/18 04:05:39;;;;;;;;;;;;;;;-0.91;78.73;100047.28;5015093;28;1914;-58
2022/01/18 04:08:06;;;;;;;;;;;;;;;-0.80;78.71;100064.84;5014935;28;816;-58
2022/01/18 04:10:32;;;;;;;;;;;;;;;-0.68;78.75;100067.72;5015275;28;766;-57
2022/01/18 04:12:59;;;;;;;;;;;;;;;-0.61;78.46;100075.38;5014602;28;914;-57
2022/01/18 04:15:25;;;;;;;;;;;;;;;-0.57;78.57;100079.06;5014505;28;825;-58
2022/01/18 04:26:03;;;;;;;;;;;;;;;-0.70;78.44;100094.41;5014222;28;1890;-57
2022/01/18 04:28:44;;;;;;;;;;;;;;;-0.85;78.76;100092.16;5014324;28;809;-57
2022/01/18 04:31:11;;;;;;;;;;;;;;;-1.16;79.03;100106.63;5014153;28;860;-57
2022/01/18 04:33:38;;;;;;;;;;;;;;;-1.40;79.70;100100.84;5014100;28;812;-57
2022/01/18 04:36:06;;;;;;;;;;;;;;;-1.59;79.61;100110.03;5014554;28;1059;-57
2022/01/18 04:38:33;;;;;;;;;;;;;;;-1.70;80.35;100114.91;5014208;28;927;-57
2022/01/18 04:41:05;;;;;;;;;;;;;;;-1.81;80.28;100115.50;5014701;28;789;-57
2022/01/18 04:48:24;;;;;;;;;;;;;;;-1.88;81.47;100127.59;4997314;28;829;-57
2022/01/18 04:49:06;;;;;;;;;;;;;;;-1.91;82.73;100127.41;5014238;28;663;-57
2022/01/18 04:51:33;;;;;;;;;;;;;;;-1.92;82.48;100134.75;5013915;28;833;-58
2022/01/18 04:54:01;;;;;;;;;;;;;;;-1.93;83.06;100135.84;5013958;28;874;-57
2022/01/18 04:59:08;;;;;;;;;;;;;;;-2.01;82.75;100155.56;5013568;28;1166;-57
2022/01/18 05:04:44;;;;;;;;;;;;;;;-1.93;83.33;100156.72;4986125;28;1968;-57
2022/01/18 05:07:13;;;;;;;;;;;;;;;-1.89;83.07;100158.50;5013480;28;876;-57
2022/01/18 05:09:42;;;;;;;;;;;;;;;-1.79;83.04;100160.16;4995862;28;1296;-57
2022/01/18 05:12:16;;;;;;;;;;;;;;;-1.79;82.50;100157.47;5012599;28;868;-58
2022/01/18 05:14:42;;;;;;;;;;;;;;;-1.67;81.80;100167.69;5013635;28;849;-57
2022/01/18 05:19:47;;;;;;;;;;;;;;;-1.76;80.75;100164.94;5013256;28;839;-57
2022/01/18 05:25:00;;;;;;;;;;;;;;;-1.83;80.18;100189.00;5013132;28;1910;-58
2022/01/18 05:27:27;;;;;;;;;;;;;;;-1.92;79.84;100196.25;5013116;28;938;-58
2022/01/18 05:29:53;;;;;;;;;;;;;;;-1.99;79.72;100198.59;5013132;28;860;-57
2022/01/18 05:32:20;;;;;;;;;;;;;;;-2.19;79.97;100195.28;5013059;28;899;-58
2022/01/18 05:34:48;;;;;;;;;;;;;;;-2.24;80.06;100200.81;5013378;28;996;-57
2022/01/18 05:37:15;;;;;;;;;;;;;;;-2.26;79.73;100192.22;5013018;28;876;-57
2022/01/18 05:39:41;;;;;;;;;;;;;;;-2.40;79.75;100202.28;5013003;28;867;-57
2022/01/18 05:42:07;;;;;;;;;;;;;;;-2.58;80.19;100207.53;5012912;28;872;-57
2022/01/18 05:44:34;;;;;;;;;;;;;;;-2.77;79.71;100212.28;5012739;28;1886;-57
2022/01/18 05:47:00;;;;;;;;;;;;;;;-2.82;78.97;100207.75;5012864;28;832;-57
2022/01/18 05:49:27;;;;;;;;;;;;;;;-2.78;77.52;100219.59;4995138;28;1169;-57
2022/01/18 05:51:53;;;;;;;;;;;;;;;-2.77;77.79;100232.03;5012803;28;821;-57
2022/01/18 05:54:20;;;;;;;;;;;;;;;-2.47;77.27;100235.19;5012651;28;872;-57
2022/01/18 05:56:47;;;;;;;;;;;;;;;-2.29;76.15;100236.13;5012846;28;926;-57
2022/01/18 05:59:21;;;;;;;;;;;;;;;-2.01;75.01;100244.16;5012363;28;1273;-57
2022/01/18 06:01:49;;;;;;;;;;;;;;;-1.86;73.68;100250.03;5012526;28;916;-57
2022/01/18 06:06:50;;;;;;;;;;;;;;;-1.55;72.66;100262.81;5012266;28;1914;-57
2022/01/18 06:07:04;;;;;;;;;;;;;;;-1.04;70.53;100255.25;5012215;28;806;-57
2022/01/18 06:09:30;;;;;;;;;;;;;;;-0.53;66.89;100274.72;5012372;28;868;-57
2022/01/18 06:11:57;;;;;;;;;;;;;;;-0.07;66.28;100273.34;5012325;28;840;-57
2022/01/18 06:14:24;;;;;;;;;;;;;;;0.33;64.36;100279.41;5012340;28;801;-57
2022/01/18 06:16:50;;;;;;;;;;;;;;;0.76;61.60;100283.16;5012262;28;809;-57
2022/01/18 06:19:17;;;;;;;;;;;;;;;1.02;58.99;100283.88;5012349;28;908;-57
2022/01/18 06:21:43;;;;;;;;;;;;;;;1.34;56.42;100284.34;5012155;28;844;-58
2022/01/18 06:24:11;;;;;;;;;;;;;;;1.45;54.31;100278.53;5011722;28;1956;-58
2022/01/18 06:26:39;;;;;;;;;;;;;;;1.83;53.79;100282.00;4994495;28;1583;-58
2022/01/18 06:29:05;;;;;;;;;;;;;;;2.15;51.58;100293.25;5012088;28;948;-57
2022/01/18 06:31:31;;;;;;;;;;;;;;;2.58;50.43;100299.47;5012064;28;845;-57
2022/01/18 06:33:57;;;;;;;;;;;;;;;2.86;48.68;100291.47;5011966;28;1158;-58
2022/01/18 06:36:23;;;;;;;;;;;;;;;2.85;47.67;100296.13;5011925;28;899;-58
2022/01/18 06:38:50;;;;;;;;;;;;;;;3.08;47.52;100300.38;5011962;28;820;-58
2022/01/18 06:41:16;;;;;;;;;;;;;;;3.20;46.90;100294.91;5011856;28;881;-58
2022/01/18 06:43:43;;;;;;;;;;;;;;;3.17;46.37;100292.88;5011825;28;936;-58
2022/01/18 06:46:09;;;;;;;;;;;;;;;3.04;45.13;100300.25;5011824;28;1882;-58
2022/01/18 06:48:36;;;;;;;;;;;;;;;2.99;45.61;100300.50;5012005;28;860;-57
2022/01/18 06:51:02;;;;;;;;;;;;;;;2.70;44.94;100318.63;5011714;28;876;-57
2022/01/18 06:53:32;;;;;;;;;;;;;;;2.43;46.87;100325.44;5011809;28;865;-58
2022/01/18 06:55:58;;;;;;;;;;;;;;;2.40;46.75;100321.47;5011732;28;928;-58
2022/01/18 06:58:24;;;;;;;;;;;;;;;2.96;46.59;100331.97;5011532;28;1226;-58
2022/01/18 07:00:51;;;;;;;;;;;;;;;3.04;46.02;100328.38;5011804;28;833;-58
2022/01/18 07:03:19;;;;;;;;;;;;;;;2.82;45.57;100332.31;5011542;28;884;-58
2022/01/18 07:05:46;;;;;;;;;;;;;;;2.72;45.84;100315.56;4993911;28;1966;-56
2022/01/18 07:08:15;;;;;;;;;;;;;;;2.39;45.95;100338.97;5011661;28;848;-58
2022/01/18 07:10:42;;;;;;;;;;;;;;;2.29;46.55;100320.28;5011593;28;856;-58
2022/01/18 07:13:09;;;;;;;;;;;;;;;2.14;46.20;100337.25;5011539;28;817;-57
2022/01/18 07:15:36;;;;;;;;;;;;;;;2.14;46.80;100340.78;5011636;28;853;-58
2022/01/18 07:18:05;;;;;;;;;;;;;;;2.30;47.00;100345.63;5011560;28;829;-58
2022/01/18 07:20:32;;;;;;;;;;;;;;;2.36;47.57;100347.03;4993921;28;902;-58
2022/01/18 07:22:59;;;;;;;;;;;;;;;2.29;46.25;100361.19;5011466;28;873;-58
2022/01/18 07:25:26;;;;;;;;;;;;;;;2.28;46.42;100345.16;5011280;28;1895;-58
2022/01/18 07:27:52;;;;;;;;;;;;;;;2.49;46.59;100348.66;5011386;28;881;-58
2022/01/18 07:30:19;;;;;;;;;;;;;;;2.74;46.67;100367.88;5011412;28;939;-58
2022/01/18 07:32:45;;;;;;;;;;;;;;;3.27;44.10;100361.53;5011401;28;813;-57
2022/01/18 07:35:12;;;;;;;;;;;;;;;3.83;43.82;100373.84;5012233;28;945;-58
2022/01/18 07:37:39;;;;;;;;;;;;;;;4.17;43.28;100379.97;5015105;28;936;-58
2022/01/18 07:40:05;;;;;;;;;;;;;;;4.64;43.47;100398.53;5015194;28;852;-57
2022/01/18 07:42:32;;;;;;;;;;;;;;;4.80;42.00;100404.06;5015168;28;797;-58
2022/01/18 07:44:59;;;;;;;;;;;;;;;4.56;43.16;100404.97;5014964;28;1910;-58
2022/01/18 07:47:25;;;;;;;;;;;;;;;4.47;43.59;100391.41;4997575;28;897;-58
2022/01/18 07:49:52;;;;;;;;;;;;;;;4.22;44.24;100404.34;5015025;28;915;-57
2022/01/18 07:52:19;;;;;;;;;;;;;;;3.94;44.96;100407.00;5014916;28;884;-57
2022/01/18 07:54:45;;;;;;;;;;;;;;;3.85;46.08;100385.25;5014880;28;857;-57
2022/01/18 07:57:13;;;;;;;;;;;;;;;3.74;45.56;100367.72;5014919;28;856;-57
2022/01/18 07:59:39;;;;;;;;;;;;;;;3.82;46.95;100372.25;5014547;28;1252;-57
2022/01/18 08:02:06;;;;;;;;;;;;;;;3.98;45.32;100372.34;5014750;28;864;-57
2022/01/18 08:04:33;;;;;;;;;;;;;;;4.14;46.17;100376.00;5014595;28;1965;-57
2022/01/18 08:06:59;;;;;;;;;;;;;;;4.38;44.88;100391.53;5014746;28;813;-57
2022/01/18 08:09:26;;;;;;;;;;;;;;;4.28;44.37;100395.56;5014526;28;889;-57
2022/01/18 08:15:02;;;;;;;;;;;;;;;4.40;44.84;100410.38;5006588;28;946;-58
2022/01/18 08:17:29;;;;;;;;;;;;;;;4.21;43.65;100417.25;5014440;28;1077;-57
2022/01/18 08:19:56;;;;;;;;;;;;;;;4.22;43.68;100427.03;5014435;28;844;-57
2022/01/18 08:22:22;;;;;;;;;;;;;;;4.03;44.09;100440.50;5014379;28;888;-58
2022/01/18 08:24:49;;;;;;;;;;;;;;;3.93;44.54;100432.78;5014191;28;1890;-58
2022/01/18 08:27:15;;;;;;;;;;;;;;;3.68;44.21;100447.22;5014338;28;864;-54
2022/01/18 08:29:42;;;;;;;;;;;;;;;3.50;44.89;100415.78;5014235;28;1261;-55
2022/01/18 08:32:08;;;;;;;;;;;;;;;3.47;45.52;100441.03;5014188;28;912;-55
2022/01/18 08:34:35;;;;;;;;;;;;;;;3.38;44.29;100424.72;5014211;28;963;-52
2022/01/18 08:37:02;;;;;;;;;;;;;;;3.35;44.94;100460.13;5014182;28;829;-57
2022/01/18 08:39:29;;;;;;;;;;;;;;;3.44;45.07;100456.19;5014249;28;903;-56
2022/01/18 08:41:55;;;;;;;;;;;;;;;3.40;44.21;100454.47;5014298;28;837;-54
2022/01/18 08:44:22;;;;;;;;;;;;;;;3.52;44.77;100437.28;5013842;28;1944;-53
2022/01/18 08:46:48;;;;;;;;;;;;;;;3.51;44.58;100457.56;5013601;28;845;-57
2022/01/18 08:49:14;;;;;;;;;;;;;;;3.56;44.92;100452.66;5013758;28;944;-54
2022/01/18 08:51:41;;;;;;;;;;;;;;;3.57;45.70;100462.47;5013939;28;821;-56
2022/01/18 08:54:07;;;;;;;;;;;;;;;3.79;44.44;100468.66;5013795;28;881;-56
2022/01/18 08:56:33;;;;;;;;;;;;;;;3.79;44.03;100461.22;5014077;28;861;-56
2022/01/18 08:59:01;;;;;;;;;;;;;;;3.81;44.18;100472.63;5013599;28;1488;-57
2022/01/18 09:01:28;;;;;;;;;;;;;;;3.65;43.90;100466.25;5013680;28;805;-56
2022/01/18 09:03:54;;;;;;;;;;;;;;;3.73;45.20;100476.25;5013420;28;869;-57
2022/01/18 09:06:23;;;;;;;;;;;;;;;3.95;44.27;100452.34;5013515;28;1930;-57
2022/01/18 09:08:56;;;;;;;;;;;;;;;3.90;44.74;100469.78;5013778;28;891;-57
2022/01/18 09:11:24;;;;;;;;;;;;;;;4.04;43.51;100458.53;5013439;28;950;-56
2022/01/18 09:13:51;;;;;;;;;;;;;;;4.02;43.47;100455.34;4996208;28;912;-55
2022/01/18 09:16:18;;;;;;;;;;;;;;;3.89;42.23;100449.06;5013154;28;953;-57
2022/01/18 09:18:45;;;;;;;;;;;;;;;3.86;43.48;100445.06;5013351;28;911;-56
2022/01/18 09:33:25;;;;;;;;;;;;;;;4.07;43.85;100430.47;4933429;29;1017;-57
2022/01/18 09:35:51;;;;;;;;;;;;;;;4.09;44.04;100436.41;4933483;29;980;-57
2022/01/18 09:38:16;;;;;;;;;;;;;;;4.02;43.31;100414.28;4933458;29;935;-57
2022/01/18 09:40:45;;;;;;;;;;;;;;;4.13;42.98;100414.63;4933510;29;818;-57
2022/01/18 09:43:13;;;;;;;;;;;;;;;4.09;42.85;100428.19;4917418;29;1291;-56
2022/01/18 09:45:41;;;;;;;;;;;;;;;4.06;43.80;100429.69;4933204;29;1899;-57
2022/01/18 10:00:19;;;;;;;;;;;;;;;4.15;42.02;100415.09;4946782;29;1591;-57
2022/01/18 10:02:45;;;;;;;;;;;;;;;4.26;42.28;100403.31;4952145;29;931;-57
2022/01/18 10:05:20;;;;;;;;;;;;;;;4.35;41.12;100402.38;4952133;29;1969;-57
2022/01/18 10:07:56;;;;;;;;;;;;;;;4.33;40.76;100408.19;4952020;29;988;-57
2022/01/18 10:10:44;;;;;;;;;;;;;;;4.48;41.86;100401.19;4986292;28;1219;-57
2022/01/18 10:13:30;;;;;;;;;;;;;;;4.48;40.78;100420.38;5012445;28;1884;-57
2022/01/18 10:16:00;;;;;;;;;;;;;;;4.81;42.01;100425.63;5012660;28;857;-57
2022/01/18 10:18:43;;;;;;;;;;;;;;;5.07;41.66;100422.44;5012553;28;809;-58
2022/01/18 10:21:10;;;;;;;;;;;;;;;5.08;40.22;100415.81;5012276;28;959;-58
2022/01/18 10:23:37;;;;;;;;;;;;;;;4.97;39.73;100420.22;4994647;28;1039;-57
2022/01/18 10:26:17;;;;;;;;;;;;;;;5.06;41.76;100418.13;5012113;28;1878;-58
2022/01/18 10:28:44;;;;;;;;;;;;;;;5.08;40.59;100417.78;5012139;28;872;-58
2022/01/18 10:31:25;;;;;;;;;;;;;;;5.26;41.61;100427.25;5012104;28;856;-57
2022/01/18 10:34:11;;;;;;;;;;;;;;;5.19;38.82;100426.28;5012029;28;1014;-58
2022/01/18 10:37:02;;;;;;;;;;;;;;;4.93;39.65;100393.84;5012074;28;1346;-55
2022/01/18 10:39:33;;;;;;;;;;;;;;;4.77;40.13;100416.53;5000542;28;1313;-57
2022/01/18 10:42:02;;;;;;;;;;;;;;;4.82;39.87;100401.78;4994280;28;1205;-58
2022/01/18 10:44:31;;;;;;;;;;;;;;;4.69;39.44;100415.53;5011753;28;1948;-57
2022/01/18 10:47:06;;;;;;;;;;;;;;;4.75;40.67;100399.63;5011872;28;853;-57
2022/01/18 10:49:46;;;;;;;;;;;;;;;4.75;40.55;100394.16;5012452;28;830;-58
2022/01/18 10:52:22;;;;;;;;;;;;;;;4.76;40.18;100376.59;5011731;28;931;-55
2022/01/18 10:54:50;;;;;;;;;;;;;;;4.74;39.75;100398.06;5011936;28;923;-58
2022/01/18 10:57:20;;;;;;;;;;;;;;;4.94;39.47;100398.19;4994342;28;1232;-57
2022/01/18 10:59:48;;;;;;;;;;;;;;;4.89;40.37;100397.31;5010949;28;1429;-58
2022/01/18 11:02:34;;;;;;;;;;;;;;;4.87;40.93;100398.81;5011676;28;880;-58
2022/01/18 11:05:23;;;;;;;;;;;;;;;5.15;41.75;100411.69;5011068;28;1969;-58
2022/01/18 11:07:51;;;;;;;;;;;;;;;5.37;39.51;100410.28;5011743;28;876;-58
2022/01/18 11:10:20;;;;;;;;;;;;;;;5.34;41.11;100416.50;4996529;28;1200;-58
2022/01/18 11:12:53;;;;;;;;;;;;;;;5.48;39.58;100417.66;5015376;28;904;-58
2022/01/18 11:15:22;;;;;;;;;;;;;;;5.41;38.36;100409.22;4998073;28;1164;-58
2022/01/18 11:21:25;;;;;;;;;;;;;;;5.30;39.31;100395.25;5011656;28;1228;-58
2022/01/18 11:23:58;;;;;;;;;;;;;;;5.41;39.98;100403.75;5015632;28;1187;-57
2022/01/18 11:29:51;;;;;;;;;;;;;;;5.61;38.06;100414.81;5016161;28;705;-57
2022/01/18 11:32:18;;;;;;;;;;;;;;;6.00;39.67;100426.78;5015205;28;1132;-57
2022/01/18 11:35:14;;;;;;;;;;;;;;;6.13;38.43;100409.03;5015398;28;1292;-56
2022/01/18 11:37:52;;;;;;;;;;;;;;;5.85;37.70;100419.34;5015160;28;1217;-57
2022/01/18 11:40:19;;;;;;;;;;;;;;;5.93;38.35;100430.13;5015328;28;926;-57
2022/01/18 11:42:52;;;;;;;;;;;;;;;6.04;36.01;100424.91;5015630;28;837;-57
2022/01/18 11:48:23;;;;;;;;;;;;;;;5.54;37.96;100431.88;5015316;28;678;-58
2022/01/18 11:51:05;;;;;;;;;;;;;;;5.42;38.22;100430.03;5015154;28;908;-58
2022/01/18 11:53:44;;;;;;;;;;;;;;;4.99;39.13;100437.06;5014888;28;974;-57
2022/01/18 11:56:31;;;;;;;;;;;;;;;4.65;40.09;100419.28;5014845;28;923;-57
2022/01/18 11:59:18;;;;;;;;;;;;;;;4.70;39.63;100432.75;5014890;28;848;-57
2022/01/18 12:01:54;;;;;;;;;;;;;;;5.44;38.81;100425.00;5014578;28;1402;-55
2022/01/18 12:05:08;;;;;;;;;;;;;;;5.51;39.13;100433.38;5014570;28;1918;-56
2022/01/18 12:07:34;;;;;;;;;;;;;;;5.51;38.76;100436.13;4979618;28;1107;-57
2022/01/18 12:10:13;;;;;;;;;;;;;;;5.77;38.43;100443.03;5014627;28;923;-56
2022/01/18 12:12:58;;;;;;;;;;;;;;;6.03;37.44;100434.28;5014643;28;821;-56
2022/01/18 12:15:29;;;;;;;;;;;;;;;6.12;36.33;100437.66;4996579;28;2542;-57
2022/01/18 12:18:01;;;;;;;;;;;;;;;6.16;37.67;100448.69;4996863;28;1213;-57
2022/01/18 12:20:43;;;;;;;;;;;;;;;6.43;39.11;100457.94;5014353;28;932;-57
2022/01/18 12:23:10;;;;;;;;;;;;;;;6.89;36.20;100438.09;5014267;28;904;-58
2022/01/18 12:25:51;;;;;;;;;;;;;;;6.76;36.58;100434.69;5014291;28;1894;-57
2022/01/18 12:28:48;;;;;;;;;;;;;;;6.07;38.85;100448.09;5014333;28;813;-58
2022/01/18 12:31:41;;;;;;;;;;;;;;;5.78;39.20;100463.81;5014043;28;946;-58
2022/01/18 12:34:29;;;;;;;;;;;;;;;5.25;39.80;100441.31;5014158;28;1257;-55
2022/01/18 12:37:17;;;;;;;;;;;;;;;5.06;39.92;100461.94;5014141;28;903;-57
2022/01/18 12:45:29;;;;;;;;;;;;;;;5.08;39.92;100456.13;5014167;28;1948;-58
2022/01/18 12:47:59;;;;;;;;;;;;;;;5.06;40.30;100464.69;5013948;28;860;-57
2022/01/18 12:50:27;;;;;;;;;;;;;;;4.94;40.34;100451.03;5014150;28;876;-55
2022/01/18 12:52:55;;;;;;;;;;;;;;;5.04;40.00;100477.16;5013804;28;947;-57
2022/01/18 12:55:24;;;;;;;;;;;;;;;4.98;39.92;100468.38;5013896;28;824;-57
2022/01/18 12:58:10;;;;;;;;;;;;;;;5.04;39.97;100461.50;5013745;28;832;-58
2022/01/18 13:00:53;;;;;;;;;;;;;;;4.90;41.03;100463.84;5013091;28;1013;-58
2022/01/18 13:03:35;;;;;;;;;;;;;;;5.19;40.34;100454.47;5014032;28;817;-58
2022/01/18 13:06:03;;;;;;;;;;;;;;;5.40;39.06;100453.44;5013477;28;1903;-58
2022/01/18 13:08:39;;;;;;;;;;;;;;;5.62;38.85;100461.09;5014328;28;774;-58
2022/01/18 13:11:05;;;;;;;;;;;;;;;5.76;38.90;100462.59;5013518;28;813;-58
2022/01/18 13:13:32;;;;;;;;;;;;;;;5.93;37.88;100468.53;5013531;28;872;-57
2022/01/18 13:26:51;;;;;;;;;;;;;;;5.36;36.86;100480.00;5013162;28;1953;-56
2022/01/18 13:29:28;;;;;;;;;;;;;;;5.27;36.76;100469.97;5013208;28;805;-57
2022/01/18 13:32:04;;;;;;;;;;;;;;;5.03;37.68;100464.59;5013152;28;836;-57
2022/01/18 13:37:34;;;;;;;;;;;;;;;5.21;38.78;100468.63;5013866;28;584;-58
2022/01/18 13:40:06;;;;;;;;;;;;;;;5.11;39.77;100469.91;5013243;28;921;-58
2022/01/18 13:42:42;;;;;;;;;;;;;;;5.24;38.46;100467.13;5012902;28;860;-58
2022/01/18 13:45:11;;;;;;;;;;;;;;;5.18;38.83;100466.56;5012775;28;1882;-58
2022/01/18 13:47:38;;;;;;;;;;;;;;;5.28;39.47;100473.50;4995157;28;1157;-58
2022/01/18 13:50:07;;;;;;;;;;;;;;;5.32;39.29;100472.44;5012821;28;832;-58
2022/01/18 13:52:34;;;;;;;;;;;;;;;5.33;39.14;100473.22;5012780;28;875;-59
2022/01/18 13:55:00;;;;;;;;;;;;;;;5.29;39.28;100464.94;5012662;28;856;-57
2022/01/18 13:57:27;;;;;;;;;;;;;;;4.82;39.03;100472.97;5012740;28;865;-58
2022/01/18 13:59:55;;;;;;;;;;;;;;;4.28;40.47;100479.59;5012337;28;1368;-58
2022/01/18 14:02:23;;;;;;;;;;;;;;;3.88;40.84;100480.25;5012734;28;904;-58
2022/01/18 14:05:09;;;;;;;;;;;;;;;3.64;41.50;100486.50;5012417;28;1985;-58
2022/01/18 14:07:36;;;;;;;;;;;;;;;3.50;42.49;100486.00;5012519;28;836;-58
2022/01/18 14:10:04;;;;;;;;;;;;;;;3.41;42.80;100491.56;5012424;28;797;-57
2022/01/18 14:12:31;;;;;;;;;;;;;;;3.29;42.94;100484.16;5012320;28;942;-57
2022/01/18 14:14:58;;;;;;;;;;;;;;;3.23;43.36;100486.28;5012426;28;813;-57
2022/01/18 14:17:25;;;;;;;;;;;;;;;3.13;43.66;100500.34;5012345;28;848;-57
2022/01/18 14:20:01;;;;;;;;;;;;;;;3.11;43.77;100501.81;5012250;28;881;-57
2022/01/18 14:22:28;;;;;;;;;;;;;;;2.95;44.04;100501.66;5012247;28;825;-58
2022/01/18 14:24:59;;;;;;;;;;;;;;;2.92;44.84;100497.63;5012428;28;1898;-57
2022/01/18 14:27:28;;;;;;;;;;;;;;;2.84;45.15;100488.41;5011984;28;853;-57
2022/01/18 14:29:56;;;;;;;;;;;;;;;2.75;44.89;100504.06;5012130;28;805;-57
2022/01/18 14:32:31;;;;;;;;;;;;;;;2.68;45.77;100501.03;5012072;28;817;-57
2022/01/18 14:35:02;;;;;;;;;;;;;;;2.76;45.62;100491.97;5012421;28;880;-57
2022/01/18 14:37:35;;;;;;;;;;;;;;;2.89;45.82;100492.06;5011872;28;948;-57
2022/01/18 14:40:05;;;;;;;;;;;;;;;2.79;46.19;100494.03;5012019;28;813;-57
2022/01/18 14:42:39;;;;;;;;;;;;;;;2.69;46.16;100493.63;5011812;28;1002;-57
2022/01/18 14:45:30;;;;;;;;;;;;;;;2.50;46.64;100494.91;5011541;28;1906;-57
2022/01/18 14:47:54;;;;;;;;;;;;;;;2.50;47.26;100494.09;5011876;28;1811;-58
2022/01/18 14:50:22;;;;;;;;;;;;;;;2.53;46.65;100477.84;5012220;28;840;-57
2022/01/18 14:52:50;;;;;;;;;;;;;;;2.55;47.58;100474.81;5012399;28;844;-57
2022/01/18 14:55:18;;;;;;;;;;;;;;;2.58;47.29;100491.31;5011758;28;920;-57
2022/01/18 14:57:47;;;;;;;;;;;;;;;2.25;48.13;100442.09;5011746;28;940;-57
2022/01/18 15:00:14;;;;;;;;;;;;;;;2.35;48.10;100484.56;5011572;28;1258;-56
2022/01/18 15:02:41;;;;;;;;;;;;;;;2.33;48.32;100486.84;5011817;28;899;-58
2022/01/18 15:05:08;;;;;;;;;;;;;;;2.39;47.85;100490.94;5011669;28;1906;-58
2022/01/18 15:07:38;;;;;;;;;;;;;;;2.36;48.03;100495.13;5011624;28;852;-58
2022/01/18 15:10:06;;;;;;;;;;;;;;;2.30;48.94;100496.44;5011585;28;865;-58
2022/01/18 15:12:36;;;;;;;;;;;;;;;2.19;49.00;100506.16;5011886;28;924;-56
2022/01/18 15:15:03;;;;;;;;;;;;;;;2.09;50.03;100499.16;5011512;28;939;-57
2022/01/18 15:17:30;;;;;;;;;;;;;;;2.06;50.33;100497.06;5011584;28;876;-57
2022/01/18 15:19:56;;;;;;;;;;;;;;;2.01;50.40;100505.44;5011541;28;1335;-57
2022/01/18 15:22:23;;;;;;;;;;;;;;;1.88;49.95;100490.06;5011614;28;840;-57
2022/01/18 15:24:49;;;;;;;;;;;;;;;1.79;50.45;100493.66;5011476;28;1953;-57
2022/01/18 15:27:16;;;;;;;;;;;;;;;1.79;50.60;100492.84;5011424;28;809;-57
2022/01/18 15:29:44;;;;;;;;;;;;;;;1.68;50.50;100499.78;5011417;28;911;-57